sensor_id;sensor_type;location;lat;lon;timestamp;P1;durP1;ratioP1;P2;durP2;ratioP2
36241;SDS011;22283;42.748;12.732;2022-11-30T00:05:03;10.07;;;6.72;;
36241;SDS011;22283;42.748;12.732;2022-11-30T00:10:07;15.52;;;7.63;;
36241;SDS011;22283;42.748;12.732;2022-11-30T00:15:48;15.77;;;8.25;;
36241;SDS011;22283;42.748;12.732;2022-11-30T00:20:50;13.60;;;9.43;;
36241;SDS011;22283;42.748;12.732;2022-11-30T00:26:05;14.63;;;9.20;;
36241;SDS011;22283;42.748;12.732;2022-11-30T00:31:18;12.30;;;6.93;;
36241;SDS011;22283;42.748;12.732;2022-11-30T00:36:31;10.15;;;6.85;;
36241;SDS011;22283;42.748;12.732;2022-11-30T00:42:01;12.23;;;8.25;;
36241;SDS011;22283;42.748;12.732;2022-11-30T00:47:27;11.25;;;6.78;;
36241;SDS011;22283;42.748;12.732;2022-11-30T00:58:30;9.13;;;5.57;;
36241;SDS011;22283;42.748;12.732;2022-11-30T01:03:45;9.50;;;5.60;;
36241;SDS011;22283;42.748;12.732;2022-11-30T01:08:59;11.63;;;5.85;;
36241;SDS011;22283;42.748;12.732;2022-11-30T01:14:17;9.85;;;5.45;;
36241;SDS011;22283;42.748;12.732;2022-11-30T01:19:30;9.70;;;5.63;;
36241;SDS011;22283;42.748;12.732;2022-11-30T01:24:37;7.75;;;4.68;;
36241;SDS011;22283;42.748;12.732;2022-11-30T01:30:08;8.38;;;4.90;;
36241;SDS011;22283;42.748;12.732;2022-11-30T01:35:38;9.60;;;6.78;;
36241;SDS011;22283;42.748;12.732;2022-11-30T01:40:51;8.50;;;4.93;;
36241;SDS011;22283;42.748;12.732;2022-11-30T01:53:52;8.50;;;4.88;;
36241;SDS011;22283;42.748;12.732;2022-11-30T02:05:50;7.47;;;4.53;;
36241;SDS011;22283;42.748;12.732;2022-11-30T02:11:22;13.57;;;4.85;;
36241;SDS011;22283;42.748;12.732;2022-11-30T02:17:06;5.47;;;3.92;;
36241;SDS011;22283;42.748;12.732;2022-11-30T02:35:45;7.57;;;4.18;;
36241;SDS011;22283;42.748;12.732;2022-11-30T02:59:39;7.57;;;4.55;;
36241;SDS011;22283;42.748;12.732;2022-11-30T03:05:24;6.32;;;4.10;;
36241;SDS011;22283;42.748;12.732;2022-11-30T03:22:58;15.68;;;7.68;;
36241;SDS011;22283;42.748;12.732;2022-11-30T03:40:22;15.55;;;6.00;;
36241;SDS011;22283;42.748;12.732;2022-11-30T03:59:36;14.07;;;6.60;;
36241;SDS011;22283;42.748;12.732;2022-11-30T04:05:36;17.08;;;9.57;;
36241;SDS011;22283;42.748;12.732;2022-11-30T04:11:31;14.15;;;7.22;;
36241;SDS011;22283;42.748;12.732;2022-11-30T04:17:13;16.88;;;7.93;;
36241;SDS011;22283;42.748;12.732;2022-11-30T04:22:37;14.32;;;6.90;;
36241;SDS011;22283;42.748;12.732;2022-11-30T04:27:51;14.18;;;6.72;;
36241;SDS011;22283;42.748;12.732;2022-11-30T04:53:04;13.30;;;7.50;;
36241;SDS011;22283;42.748;12.732;2022-11-30T04:58:30;12.85;;;7.95;;
36241;SDS011;22283;42.748;12.732;2022-11-30T05:04:49;14.38;;;7.95;;
36241;SDS011;22283;42.748;12.732;2022-11-30T05:16:55;16.83;;;9.00;;
36241;SDS011;22283;42.748;12.732;2022-11-30T05:22:31;18.00;;;8.93;;
36241;SDS011;22283;42.748;12.732;2022-11-30T05:34:27;16.98;;;8.73;;
36241;SDS011;22283;42.748;12.732;2022-11-30T05:45:19;16.40;;;8.57;;
36241;SDS011;22283;42.748;12.732;2022-11-30T05:50:37;14.43;;;8.35;;
36241;SDS011;22283;42.748;12.732;2022-11-30T05:55:55;14.47;;;8.73;;
36241;SDS011;22283;42.748;12.732;2022-11-30T06:01:02;21.75;;;9.40;;
36241;SDS011;22283;42.748;12.732;2022-11-30T06:06:31;18.35;;;9.23;;
36241;SDS011;22283;42.748;12.732;2022-11-30T06:12:23;15.88;;;8.30;;
36241;SDS011;22283;42.748;12.732;2022-11-30T06:18:06;14.27;;;7.22;;
36241;SDS011;22283;42.748;12.732;2022-11-30T06:23:19;16.92;;;7.93;;
36241;SDS011;22283;42.748;12.732;2022-11-30T06:28:57;19.95;;;9.23;;
36241;SDS011;22283;42.748;12.732;2022-11-30T06:34:18;18.25;;;9.02;;
36241;SDS011;22283;42.748;12.732;2022-11-30T06:39:27;24.80;;;11.17;;
36241;SDS011;22283;42.748;12.732;2022-11-30T06:45:14;20.23;;;10.57;;
36241;SDS011;22283;42.748;12.732;2022-11-30T06:50:41;16.98;;;11.18;;
36241;SDS011;22283;42.748;12.732;2022-11-30T06:55:51;24.75;;;10.88;;
36241;SDS011;22283;42.748;12.732;2022-11-30T07:00:55;23.27;;;10.48;;
36241;SDS011;22283;42.748;12.732;2022-11-30T07:06:07;27.05;;;11.07;;
36241;SDS011;22283;42.748;12.732;2022-11-30T07:11:22;23.27;;;11.07;;
36241;SDS011;22283;42.748;12.732;2022-11-30T07:16:47;25.50;;;11.30;;
36241;SDS011;22283;42.748;12.732;2022-11-30T07:21:48;30.65;;;11.43;;
36241;SDS011;22283;42.748;12.732;2022-11-30T07:34:04;18.13;;;11.80;;
36241;SDS011;22283;42.748;12.732;2022-11-30T07:40:27;30.10;;;13.40;;
36241;SDS011;22283;42.748;12.732;2022-11-30T08:11:33;29.77;;;12.88;;
36241;SDS011;22283;42.748;12.732;2022-11-30T08:29:45;20.48;;;11.65;;
36241;SDS011;22283;42.748;12.732;2022-11-30T08:41:53;25.83;;;11.43;;
36241;SDS011;22283;42.748;12.732;2022-11-30T08:47:28;17.83;;;11.15;;
36241;SDS011;22283;42.748;12.732;2022-11-30T08:52:29;34.33;;;13.07;;
36241;SDS011;22283;42.748;12.732;2022-11-30T08:57:30;36.80;;;14.97;;
36241;SDS011;22283;42.748;12.732;2022-11-30T09:02:31;23.90;;;12.40;;
36241;SDS011;22283;42.748;12.732;2022-11-30T09:07:32;26.87;;;14.67;;
36241;SDS011;22283;42.748;12.732;2022-11-30T09:12:34;32.70;;;13.13;;
36241;SDS011;22283;42.748;12.732;2022-11-30T09:17:39;25.45;;;13.77;;
36241;SDS011;22283;42.748;12.732;2022-11-30T09:22:40;23.47;;;13.43;;
36241;SDS011;22283;42.748;12.732;2022-11-30T09:28:03;15.43;;;12.00;;
36241;SDS011;22283;42.748;12.732;2022-11-30T09:33:03;19.45;;;12.75;;
36241;SDS011;22283;42.748;12.732;2022-11-30T09:38:13;16.15;;;11.57;;
36241;SDS011;22283;42.748;12.732;2022-11-30T09:49:51;13.20;;;9.02;;
36241;SDS011;22283;42.748;12.732;2022-11-30T09:55:24;13.30;;;9.70;;
36241;SDS011;22283;42.748;12.732;2022-11-30T10:12:38;16.88;;;8.10;;
36241;SDS011;22283;42.748;12.732;2022-11-30T10:30:56;51.85;;;34.03;;
36241;SDS011;22283;42.748;12.732;2022-11-30T10:50:34;11.07;;;6.75;;
36241;SDS011;22283;42.748;12.732;2022-11-30T11:12:57;11.18;;;7.18;;
36241;SDS011;22283;42.748;12.732;2022-11-30T11:24:07;9.50;;;6.28;;
36241;SDS011;22283;42.748;12.732;2022-11-30T11:29:43;10.57;;;6.63;;
36241;SDS011;22283;42.748;12.732;2022-11-30T11:34:59;19.17;;;10.57;;
36241;SDS011;22283;42.748;12.732;2022-11-30T11:40:31;8.02;;;5.68;;
36241;SDS011;22283;42.748;12.732;2022-11-30T11:45:59;13.60;;;6.63;;
36241;SDS011;22283;42.748;12.732;2022-11-30T11:56:49;10.35;;;6.05;;
36241;SDS011;22283;42.748;12.732;2022-11-30T12:07:48;11.52;;;6.72;;
36241;SDS011;22283;42.748;12.732;2022-11-30T12:25:44;8.07;;;6.10;;
36241;SDS011;22283;42.748;12.732;2022-11-30T12:43:07;10.63;;;7.23;;
36241;SDS011;22283;42.748;12.732;2022-11-30T12:48:50;9.65;;;6.72;;
36241;SDS011;22283;42.748;12.732;2022-11-30T12:59:33;12.00;;;8.32;;
36241;SDS011;22283;42.748;12.732;2022-11-30T13:22:51;9.65;;;6.93;;
36241;SDS011;22283;42.748;12.732;2022-11-30T13:29:21;13.82;;;8.40;;
36241;SDS011;22283;42.748;12.732;2022-11-30T13:34:39;12.40;;;7.78;;
36241;SDS011;22283;42.748;12.732;2022-11-30T13:51:53;18.10;;;8.77;;
36241;SDS011;22283;42.748;12.732;2022-11-30T14:08:32;13.52;;;9.05;;
36241;SDS011;22283;42.748;12.732;2022-11-30T14:20:34;14.43;;;9.93;;
36241;SDS011;22283;42.748;12.732;2022-11-30T14:25:36;11.50;;;8.43;;
36241;SDS011;22283;42.748;12.732;2022-11-30T14:30:56;15.90;;;11.57;;
36241;SDS011;22283;42.748;12.732;2022-11-30T14:36:01;11.98;;;9.02;;
36241;SDS011;22283;42.748;12.732;2022-11-30T14:58:29;15.65;;;11.30;;
36241;SDS011;22283;42.748;12.732;2022-11-30T15:03:54;34.03;;;20.35;;
36241;SDS011;22283;42.748;12.732;2022-11-30T15:09:00;25.48;;;16.55;;
36241;SDS011;22283;42.748;12.732;2022-11-30T15:14:08;33.60;;;20.92;;
36241;SDS011;22283;42.748;12.732;2022-11-30T15:19:17;27.92;;;16.27;;
36241;SDS011;22283;42.748;12.732;2022-11-30T15:24:23;24.23;;;14.77;;
36241;SDS011;22283;42.748;12.732;2022-11-30T15:29:58;23.05;;;15.73;;
36241;SDS011;22283;42.748;12.732;2022-11-30T15:34:58;29.27;;;14.35;;
36241;SDS011;22283;42.748;12.732;2022-11-30T15:40:03;19.25;;;9.35;;
36241;SDS011;22283;42.748;12.732;2022-11-30T15:45:26;17.52;;;11.40;;
36241;SDS011;22283;42.748;12.732;2022-11-30T15:50:35;18.42;;;8.32;;
36241;SDS011;22283;42.748;12.732;2022-11-30T15:55:43;23.77;;;12.38;;
36241;SDS011;22283;42.748;12.732;2022-11-30T16:01:07;22.95;;;13.27;;
36241;SDS011;22283;42.748;12.732;2022-11-30T16:06:21;32.38;;;13.65;;
36241;SDS011;22283;42.748;12.732;2022-11-30T16:11:43;22.52;;;13.32;;
36241;SDS011;22283;42.748;12.732;2022-11-30T16:16:53;19.17;;;10.60;;
36241;SDS011;22283;42.748;12.732;2022-11-30T16:21:55;27.92;;;16.13;;
36241;SDS011;22283;42.748;12.732;2022-11-30T16:26:56;86.60;;;62.70;;
36241;SDS011;22283;42.748;12.732;2022-11-30T16:32:01;29.30;;;18.40;;
36241;SDS011;22283;42.748;12.732;2022-11-30T16:37:07;23.00;;;14.88;;
36241;SDS011;22283;42.748;12.732;2022-11-30T16:42:31;36.90;;;18.02;;
36241;SDS011;22283;42.748;12.732;2022-11-30T16:47:32;28.73;;;16.47;;
36241;SDS011;22283;42.748;12.732;2022-11-30T17:00:15;21.70;;;14.63;;
36241;SDS011;22283;42.748;12.732;2022-11-30T17:05:18;27.85;;;14.15;;
36241;SDS011;22283;42.748;12.732;2022-11-30T17:10:20;26.40;;;13.68;;
36241;SDS011;22283;42.748;12.732;2022-11-30T17:15:22;32.10;;;17.02;;
36241;SDS011;22283;42.748;12.732;2022-11-30T17:20:24;36.30;;;18.90;;
36241;SDS011;22283;42.748;12.732;2022-11-30T17:25:27;26.73;;;13.82;;
36241;SDS011;22283;42.748;12.732;2022-11-30T17:30:28;29.07;;;16.10;;
36241;SDS011;22283;42.748;12.732;2022-11-30T17:35:28;45.77;;;22.90;;
36241;SDS011;22283;42.748;12.732;2022-11-30T17:40:29;40.57;;;26.07;;
36241;SDS011;22283;42.748;12.732;2022-11-30T17:45:30;27.67;;;19.80;;
36241;SDS011;22283;42.748;12.732;2022-11-30T17:50:30;34.27;;;20.03;;
36241;SDS011;22283;42.748;12.732;2022-11-30T17:55:31;31.50;;;17.80;;
36241;SDS011;22283;42.748;12.732;2022-11-30T18:00:33;26.27;;;15.98;;
36241;SDS011;22283;42.748;12.732;2022-11-30T18:05:34;31.23;;;18.97;;
36241;SDS011;22283;42.748;12.732;2022-11-30T18:10:37;33.23;;;20.77;;
36241;SDS011;22283;42.748;12.732;2022-11-30T18:15:39;37.80;;;20.85;;
36241;SDS011;22283;42.748;12.732;2022-11-30T18:20:40;36.10;;;18.37;;
36241;SDS011;22283;42.748;12.732;2022-11-30T18:25:41;28.83;;;16.77;;
36241;SDS011;22283;42.748;12.732;2022-11-30T18:30:41;27.90;;;16.37;;
36241;SDS011;22283;42.748;12.732;2022-11-30T18:35:42;32.83;;;16.67;;
36241;SDS011;22283;42.748;12.732;2022-11-30T18:40:43;33.93;;;19.63;;
36241;SDS011;22283;42.748;12.732;2022-11-30T18:45:44;21.60;;;14.63;;
36241;SDS011;22283;42.748;12.732;2022-11-30T18:50:44;32.73;;;18.80;;
36241;SDS011;22283;42.748;12.732;2022-11-30T18:55:45;31.80;;;17.43;;
36241;SDS011;22283;42.748;12.732;2022-11-30T19:00:49;27.10;;;16.43;;
36241;SDS011;22283;42.748;12.732;2022-11-30T19:06:08;31.77;;;16.65;;
36241;SDS011;22283;42.748;12.732;2022-11-30T19:18:41;33.45;;;18.88;;
36241;SDS011;22283;42.748;12.732;2022-11-30T19:24:15;36.22;;;20.00;;
36241;SDS011;22283;42.748;12.732;2022-11-30T19:29:48;37.65;;;22.05;;
36241;SDS011;22283;42.748;12.732;2022-11-30T19:48:20;32.17;;;17.60;;
36241;SDS011;22283;42.748;12.732;2022-11-30T19:54:17;30.90;;;17.65;;
36241;SDS011;22283;42.748;12.732;2022-11-30T20:00:26;24.45;;;15.60;;
36241;SDS011;22283;42.748;12.732;2022-11-30T20:18:49;28.13;;;14.77;;
36241;SDS011;22283;42.748;12.732;2022-11-30T20:30:38;27.88;;;14.63;;
36241;SDS011;22283;42.748;12.732;2022-11-30T20:36:17;25.65;;;15.75;;
36241;SDS011;22283;42.748;12.732;2022-11-30T20:47:33;28.52;;;15.48;;
36241;SDS011;22283;42.748;12.732;2022-11-30T20:53:45;31.67;;;18.08;;
36241;SDS011;22283;42.748;12.732;2022-11-30T20:59:50;40.88;;;23.17;;
36241;SDS011;22283;42.748;12.732;2022-11-30T21:05:48;33.70;;;18.48;;
36241;SDS011;22283;42.748;12.732;2022-11-30T21:36:15;28.13;;;15.13;;
36241;SDS011;22283;42.748;12.732;2022-11-30T21:42:28;25.05;;;13.98;;
36241;SDS011;22283;42.748;12.732;2022-11-30T21:48:38;27.35;;;16.05;;
36241;SDS011;22283;42.748;12.732;2022-11-30T21:54:36;32.72;;;18.02;;
36241;SDS011;22283;42.748;12.732;2022-11-30T22:07:05;27.27;;;15.00;;
36241;SDS011;22283;42.748;12.732;2022-11-30T22:52:32;24.67;;;14.20;;
36241;SDS011;22283;42.748;12.732;2022-11-30T23:05:13;23.90;;;12.43;;
36241;SDS011;22283;42.748;12.732;2022-11-30T23:18:01;18.75;;;11.68;;
36241;SDS011;22283;42.748;12.732;2022-11-30T23:24:48;21.55;;;11.70;;
36241;SDS011;22283;42.748;12.732;2022-11-30T23:43:02;19.67;;;10.40;;
36241;SDS011;22283;42.748;12.732;2022-11-30T23:49:06;20.27;;;11.02;;
36241;SDS011;22283;42.748;12.732;2022-11-30T23:55:41;18.67;;;9.73;;
